Time;durP1;ratioP1;P1;durP2;ratioP2;P2;SDS_P1;SDS_P2;PMS_P1;PMS_P2;Temp;Humidity;BMP_temperature;BMP_pressure;BME280_temperature;BME280_humidity;BME280_pressure;Samples;Min_cycle;Max_cycle;Signal;HPM_P1;HPM_P2
2021/12/01 00:03:50;;;;;;;14.83;5.63;;;2.50;99.90;;;;;;10366626;28;20489;-90
2021/12/01 00:08:51;;;;;;;11.43;4.80;;;2.50;99.90;;;;;;10367636;28;20060;-89
2021/12/01 00:13:51;;;;;;;11.73;5.27;;;2.50;99.90;;;;;;10368610;28;20129;-89
2021/12/01 00:18:52;;;;;;;12.87;5.33;;;2.50;99.90;;;;;;10366149;28;20029;-92
2021/12/01 00:23:53;;;;;;;15.00;4.33;;;2.50;99.90;;;;;;10367013;28;20489;-91
2021/12/01 00:28:53;;;;;;;15.77;3.90;;;2.50;99.90;;;;;;10367025;28;20029;-90
2021/12/01 00:33:56;;;;;;;16.27;5.50;;;2.50;99.90;;;;;;10365867;28;20026;-90
2021/12/01 00:38:56;;;;;;;15.90;4.40;;;2.50;99.90;;;;;;10366711;28;20061;-89
2021/12/01 00:43:57;;;;;;;16.07;4.10;;;2.50;99.90;;;;;;10368514;28;20077;-90
2021/12/01 00:48:58;;;;;;;14.07;4.87;;;2.50;99.90;;;;;;10374546;28;20034;-89
2021/12/01 00:53:58;;;;;;;9.90;3.60;;;2.50;99.90;;;;;;10373820;28;20117;-89
2021/12/01 00:59:00;;;;;;;13.63;3.90;;;2.50;99.90;;;;;;10374849;28;20033;-89
2021/12/01 01:04:01;;;;;;;12.80;3.67;;;2.40;99.90;;;;;;10373480;28;20053;-89
2021/12/01 01:09:05;;;;;;;8.40;3.50;;;2.30;99.90;;;;;;10372746;28;20393;-90
2021/12/01 01:19:26;;;;;;;16.80;3.77;;;2.10;99.90;;;;;;10374768;28;20038;-91
2021/12/01 01:24:28;;;;;;;16.53;5.33;;;2.00;99.90;;;;;;10374948;28;20037;-91
2021/12/01 01:29:33;;;;;;;9.30;3.93;;;1.90;99.90;;;;;;10374118;28;20489;-90
2021/12/01 01:34:34;;;;;;;21.77;4.63;;;1.90;99.90;;;;;;10372518;28;20045;-91
2021/12/01 01:39:35;;;;;;;19.87;5.20;;;1.80;99.90;;;;;;10372223;28;20029;-90
2021/12/01 01:44:35;;;;;;;19.13;4.10;;;1.80;99.90;;;;;;10372831;28;20052;-90
2021/12/01 01:49:53;;;;;;;16.93;4.53;;;1.90;99.90;;;;;;10365702;28;20026;-91
2021/12/01 01:54:54;;;;;;;25.90;8.33;;;1.90;99.90;;;;;;10344989;28;20027;-90
2021/12/01 01:59:55;;;;;;;12.00;4.97;;;1.90;99.90;;;;;;10366229;28;20046;-92
2021/12/01 02:04:56;;;;;;;29.50;9.87;;;1.90;99.90;;;;;;10381759;28;20538;-91
2021/12/01 02:09:57;;;;;;;46.97;18.23;;;1.90;99.90;;;;;;10372285;28;20121;-91
2021/12/01 02:15:01;;;;;;;26.50;9.03;;;1.80;99.90;;;;;;10371519;28;20503;-91
2021/12/01 02:20:04;;;;;;;38.53;14.80;;;1.70;99.90;;;;;;10372598;28;20069;-90
2021/12/01 02:25:05;;;;;;;34.60;14.60;;;1.70;99.90;;;;;;10404264;23;20116;-90
2021/12/01 02:30:06;;;;;;;53.17;19.97;;;1.70;99.90;;;;;;10395832;28;20081;-90
2021/12/01 02:35:07;;;;;;;31.50;14.83;;;1.60;99.90;;;;;;10393924;28;20038;-91
2021/12/01 02:40:08;;;;;;;36.90;17.90;;;1.70;99.90;;;;;;10394516;28;20124;-90
2021/12/01 02:45:09;;;;;;;26.90;9.93;;;1.70;99.90;;;;;;10412135;28;20037;-88
2021/12/01 02:50:10;;;;;;;22.50;7.50;;;1.70;99.90;;;;;;10411697;28;20120;-90
2021/12/01 02:55:15;;;;;;;22.80;10.13;;;1.70;99.90;;;;;;10427121;28;20087;-90
2021/12/01 03:00:24;;;;;;;22.13;9.17;;;1.70;99.90;;;;;;10393031;28;20033;-88
2021/12/01 03:05:25;;;;;;;18.87;8.80;;;1.60;99.90;;;;;;10411507;28;20079;-89
2021/12/01 03:10:26;;;;;;;21.13;9.57;;;1.70;99.90;;;;;;10401582;28;20029;-89
2021/12/01 03:15:27;;;;;;;24.17;9.93;;;1.70;99.90;;;;;;10408787;28;20036;-88
2021/12/01 03:20:27;;;;;;;17.40;6.90;;;1.70;99.90;;;;;;10409610;28;20063;-90
2021/12/01 03:25:28;;;;;;;26.40;11.00;;;1.70;99.90;;;;;;10409093;28;20707;-89
2021/12/01 03:30:33;;;;;;;18.70;8.17;;;1.70;99.90;;;;;;10409270;28;20036;-88
2021/12/01 03:35:36;;;;;;;18.02;7.95;;;1.70;99.90;;;;;;10399791;28;20037;-90
2021/12/01 03:40:37;;;;;;;14.80;6.97;;;1.60;99.90;;;;;;10408239;28;20033;-89
2021/12/01 03:45:39;;;;;;;22.73;9.33;;;1.70;99.90;;;;;;10408525;28;20388;-89
2021/12/01 03:50:41;;;;;;;27.70;10.80;;;1.60;99.90;;;;;;10408672;28;20560;-88
2021/12/01 03:55:46;;;;;;;19.40;8.63;;;1.70;99.90;;;;;;10409243;28;20040;-88
2021/12/01 04:00:47;;;;;;;26.23;9.57;;;1.70;99.90;;;;;;10407894;28;20129;-88
2021/12/01 04:05:48;;;;;;;20.73;8.87;;;1.60;99.90;;;;;;10417937;28;20064;-86
2021/12/01 04:11:02;;;;;;;19.83;8.93;;;1.60;99.90;;;;;;10410139;28;20036;-91
2021/12/01 04:16:03;;;;;;;26.27;9.83;;;1.60;99.90;;;;;;10407447;28;20063;-89
2021/12/01 04:21:03;;;;;;;11.90;6.20;;;1.60;99.90;;;;;;10407207;28;20489;-87
2021/12/01 04:26:04;;;;;;;16.40;7.43;;;1.60;99.90;;;;;;10406935;28;20054;-87
2021/12/01 04:31:05;;;;;;;31.87;12.27;;;1.60;99.90;;;;;;10407007;28;20026;-88
2021/12/01 04:36:06;;;;;;;31.17;12.43;;;1.50;99.90;;;;;;10408209;28;20037;-86
2021/12/01 04:41:08;;;;;;;31.63;12.43;;;1.60;99.90;;;;;;10408327;28;20072;-88
2021/12/01 04:46:20;;;;;;;32.03;13.53;;;1.60;99.90;;;;;;10405849;28;20069;-88
2021/12/01 04:51:21;;;;;;;22.20;9.70;;;1.60;99.90;;;;;;10406793;28;20123;-87
2021/12/01 04:56:21;;;;;;;39.73;17.47;;;1.60;99.90;;;;;;10407769;28;20025;-88
2021/12/01 05:01:22;;;;;;;33.37;15.13;;;1.60;99.90;;;;;;10405366;28;20049;-89
2021/12/01 05:06:23;;;;;;;38.43;15.33;;;1.60;99.90;;;;;;10394282;28;21509;-88
2021/12/01 05:11:25;;;;;;;44.60;14.50;;;1.60;99.90;;;;;;10407156;28;20037;-89
2021/12/01 05:17:00;;;;;;;32.53;13.90;;;1.60;99.90;;;;;;10438348;28;20061;-89
2021/12/01 05:22:02;;;;;;;33.00;13.70;;;1.60;99.90;;;;;;10412117;28;20037;-88
2021/12/01 05:27:17;;;;;;;26.03;10.07;;;1.60;99.90;;;;;;10343195;23;20054;-90
2021/12/01 05:38:20;;;;;;;25.83;11.17;;;1.60;99.90;;;;;;10280098;28;20274;-90
2021/12/01 05:43:54;;;;;;;;;;;;;;;;;;;;;
2021/12/01 05:55:41;;;;;;;40.87;16.93;;;1.60;99.90;;;;;;10267975;28;20042;-91
2021/12/01 06:01:42;;;;;;;43.67;17.03;;;1.60;99.90;;;;;;10290630;28;20065;-90
2021/12/01 06:13:30;;;;;;;91.93;31.47;;;1.60;99.90;;;;;;10290550;28;20110;-90
2021/12/01 06:19:09;;;;;;;42.40;16.30;;;1.50;99.90;;;;;;10307211;28;20062;-91
2021/12/01 06:24:34;;;;;;;42.43;17.17;;;1.60;99.90;;;;;;10304535;28;20055;-90
2021/12/01 06:30:31;;;;;;;33.50;13.23;;;1.60;99.90;;;;;;10330324;28;20050;-90
2021/12/01 06:54:06;;;;;;;62.23;23.93;;;1.60;99.90;;;;;;10167079;29;20508;-89
2021/12/01 07:00:07;;;;;;;;;;;;;;;;;;;;;
2021/12/01 07:24:21;;;;;;;;;;;;;;;;;;;;;
2021/12/01 07:35:58;;;;;;;114.23;41.50;;;2.00;99.90;;;;;;10204686;29;20061;-90
2021/12/01 08:17:59;;;;;;;244.37;88.23;;;2.40;99.90;;;;;;10162832;29;19919;-91
2021/12/01 08:23:12;;;;;;;125.83;51.23;;;2.50;99.90;;;;;;10228177;29;20054;-91
2021/12/01 08:28:53;;;;;;;116.37;47.67;;;2.70;99.90;;;;;;10277029;28;20450;-90
2021/12/01 08:40:03;;;;;;;;;;;;;;;;;;;;;
2021/12/01 08:45:04;;;;;;;70.97;29.97;;;3.00;99.90;;;;;;10418333;28;20029;-90
2021/12/01 08:50:19;;;;;;;97.17;36.90;;;3.20;99.90;;;;;;10391110;28;20022;-91
2021/12/01 08:55:23;;;;;;;102.27;43.10;;;3.30;99.90;;;;;;10383379;28;20427;-90
2021/12/01 09:00:24;;;;;;;75.23;28.00;;;3.60;99.90;;;;;;10391766;28;20070;-90
2021/12/01 09:05:59;;;;;;;144.30;53.70;;;3.80;99.90;;;;;;10392309;28;20121;-91
2021/12/01 09:11:13;;;;;;;61.10;31.33;;;3.90;99.90;;;;;;10384793;28;20117;-91
2021/12/01 09:16:14;;;;;;;53.10;25.23;;;4.00;99.90;;;;;;10399049;28;20021;-90
2021/12/01 09:21:18;;;;;;;76.13;33.40;;;4.10;99.90;;;;;;10398050;28;20523;-91
2021/12/01 09:26:22;;;;;;;86.23;43.20;;;4.20;99.90;;;;;;10363930;28;20092;-90
2021/12/01 09:31:23;;;;;;;44.30;22.00;;;4.20;99.90;;;;;;10357781;28;20022;-92
2021/12/01 09:36:24;;;;;;;108.17;66.83;;;4.10;99.90;;;;;;10356654;28;20029;-91
2021/12/01 09:41:25;;;;;;;395.73;275.37;;;4.10;99.90;;;;;;10356451;28;20137;-91
2021/12/01 09:46:37;;;;;;;56.60;27.50;;;4.00;99.90;;;;;;10356650;28;20018;-93
2021/12/01 09:51:44;;;;;;;111.03;71.20;;;4.00;99.90;;;;;;10356522;28;20026;-90
2021/12/01 09:56:47;;;;;;;59.77;26.00;;;4.10;99.90;;;;;;10356702;28;20041;-91
2021/12/01 10:02:01;;;;;;;;;;;;;;;;;;;;;
2021/12/01 10:07:29;;;;;;;37.20;15.63;;;4.20;99.90;;;;;;10373468;28;20359;-90
2021/12/01 10:12:49;;;;;;;71.63;29.80;;;4.20;99.90;;;;;;10354331;28;20030;-91
2021/12/01 10:17:53;;;;;;;94.60;51.50;;;4.20;99.90;;;;;;10355548;28;20034;-90
2021/12/01 10:23:18;;;;;;;138.47;103.77;;;4.30;99.90;;;;;;10354824;28;20042;-91
2021/12/01 10:28:45;;;;;;;62.80;34.93;;;4.20;99.90;;;;;;10370967;28;20053;-91
2021/12/01 10:33:46;;;;;;;57.10;26.27;;;4.10;99.90;;;;;;10372647;28;20026;-91
2021/12/01 10:38:49;;;;;;;48.10;23.17;;;4.10;99.90;;;;;;10370269;28;20030;-89
2021/12/01 10:43:50;;;;;;;44.53;23.23;;;4.00;99.90;;;;;;10370939;28;20072;-90
2021/12/01 10:49:02;;;;;;;44.57;22.53;;;4.00;99.90;;;;;;10371533;28;20072;-90
2021/12/01 10:54:05;;;;;;;34.80;17.90;;;4.00;99.90;;;;;;10369695;28;20042;-91
2021/12/01 10:59:31;;;;;;;45.20;20.53;;;4.00;99.90;;;;;;10371828;28;20482;-92
2021/12/01 11:04:57;;;;;;;149.57;63.13;;;3.90;99.90;;;;;;10369204;28;20038;-90
2021/12/01 11:10:10;;;;;;;;;;;3.90;99.90;;;;;;10369937;28;20117;-91
2021/12/01 11:15:33;;;;;;;310.70;113.77;;;4.00;99.90;;;;;;10371456;28;19913;-91
2021/12/01 11:20:40;;;;;;;73.63;28.17;;;4.00;99.90;;;;;;10370609;28;20046;-90
2021/12/01 11:25:47;;;;;;;52.93;26.43;;;4.10;99.90;;;;;;10389283;28;20061;-89
2021/12/01 11:31:04;;;;;;;58.23;23.17;;;4.10;99.90;;;;;;10393162;28;20488;-91
2021/12/01 11:36:20;;;;;;;65.97;25.30;;;4.20;99.90;;;;;;10411080;28;20504;-90
2021/12/01 11:41:31;;;;;;;31.67;14.20;;;4.20;99.90;;;;;;10392832;28;20416;-91
2021/12/01 11:46:35;;;;;;;31.50;14.73;;;4.20;99.90;;;;;;10410938;28;20365;-91
2021/12/01 11:51:46;;;;;;;24.97;11.83;;;4.20;99.90;;;;;;10410134;28;20022;-89
2021/12/01 11:57:25;;;;;;;40.10;18.37;;;4.20;99.90;;;;;;10410548;28;20068;-92
2021/12/01 12:02:39;;;;;;;20.07;9.97;;;4.20;99.90;;;;;;10400948;28;20065;-91
2021/12/01 12:08:00;;;;;;;20.47;9.57;;;4.20;99.90;;;;;;10411351;28;20035;-89
2021/12/01 12:13:16;;;;;;;24.90;13.17;;;4.20;99.90;;;;;;10409602;28;20480;-92
2021/12/01 12:19:08;;;;;;;23.27;12.88;;;4.10;99.90;;;;;;10409956;28;20041;-92
2021/12/01 12:24:17;;;;;;;32.00;16.90;;;4.10;99.90;;;;;;10299144;28;20041;-90
2021/12/01 12:29:25;;;;;;;27.13;15.03;;;4.00;99.90;;;;;;10391062;28;20017;-91
2021/12/01 12:34:29;;;;;;;50.87;21.87;;;4.00;99.90;;;;;;10391522;28;20026;-92
2021/12/01 12:39:32;;;;;;;44.67;21.87;;;3.90;99.90;;;;;;10390381;28;20270;-91
2021/12/01 12:44:41;;;;;;;43.73;21.47;;;3.90;99.90;;;;;;10390420;28;20111;-92
2021/12/01 12:49:45;;;;;;;44.63;19.93;;;3.90;99.90;;;;;;10390916;28;20445;-91
2021/12/01 12:54:45;;;;;;;39.03;18.57;;;3.90;99.90;;;;;;10408166;28;20030;-91
2021/12/01 12:59:46;;;;;;;37.03;18.23;;;3.90;99.90;;;;;;10391335;28;20030;-91
2021/12/01 13:05:02;;;;;;;189.90;73.80;;;3.90;99.90;;;;;;10390602;28;20033;-91
2021/12/01 13:10:14;;;;;;;106.03;36.60;;;3.90;99.90;;;;;;10390384;28;20037;-92
2021/12/01 13:15:40;;;;;;;79.20;33.77;;;4.00;99.90;;;;;;10389966;28;20040;-90
2021/12/01 13:20:45;;;;;;;81.40;34.67;;;4.00;99.90;;;;;;10408439;28;20095;-89
2021/12/01 13:26:05;;;;;;;70.30;28.40;;;4.00;99.90;;;;;;10435126;28;20292;-89
2021/12/01 13:31:27;;;;;;;77.27;32.20;;;4.10;99.90;;;;;;10408163;28;20028;-89
2021/12/01 13:36:53;;;;;;;51.93;26.33;;;4.10;99.90;;;;;;10407982;28;20036;-89
2021/12/01 13:42:16;;;;;;;76.43;36.28;;;4.20;99.90;;;;;;10435288;28;20052;-90
2021/12/01 13:47:21;;;;;;;83.97;46.93;;;4.20;99.90;;;;;;10398097;28;20052;-89
2021/12/01 13:52:39;;;;;;;113.67;63.47;;;4.30;99.90;;;;;;10393859;28;20511;-88
2021/12/01 13:57:41;;;;;;;76.37;38.13;;;4.30;99.90;;;;;;10427268;28;20503;-89
2021/12/01 14:02:42;;;;;;;54.83;26.83;;;4.30;99.90;;;;;;10413741;28;20052;-89
2021/12/01 14:07:50;;;;;;;81.07;37.20;;;4.30;99.90;;;;;;10433341;28;20021;-91
2021/12/01 14:13:19;;;;;;;70.53;31.20;;;4.30;99.90;;;;;;10437671;28;20151;-89
2021/12/01 14:18:46;;;;;;;62.17;29.30;;;4.30;99.90;;;;;;10423606;28;20064;-90
2021/12/01 14:24:14;;;;;;;74.75;30.10;;;4.30;99.90;;;;;;10415952;28;20417;-89
2021/12/01 14:29:48;;;;;;;57.43;24.67;;;4.30;99.90;;;;;;10476190;28;20488;-90
2021/12/01 14:35:33;;;;;;;54.17;25.43;;;4.40;99.90;;;;;;10479604;28;20036;-88
2021/12/01 14:40:54;;;;;;;81.93;31.87;;;4.40;99.90;;;;;;10451485;28;20136;-90
2021/12/01 14:46:15;;;;;;;81.27;31.70;;;4.40;99.90;;;;;;10433761;28;20365;-91
2021/12/01 14:51:46;;;;;;;78.23;32.07;;;4.50;99.90;;;;;;10452434;28;20425;-90
2021/12/01 14:57:08;;;;;;;91.17;42.17;;;4.40;99.90;;;;;;10452855;28;20025;-92
2021/12/01 15:02:42;;;;;;;73.80;28.40;;;4.40;99.90;;;;;;10433334;28;20082;-91
2021/12/01 15:08:05;;;;;;;77.33;30.43;;;4.50;99.90;;;;;;10438665;28;20036;-91
2021/12/01 15:13:18;;;;;;;107.43;37.57;;;4.50;99.90;;;;;;10434424;28;20037;-88
2021/12/01 15:18:34;;;;;;;160.20;54.73;;;4.60;99.90;;;;;;10434788;28;20554;-89
2021/12/01 15:23:50;;;;;;;105.88;38.30;;;4.60;99.90;;;;;;10438259;28;20337;-88
2021/12/01 15:28:53;;;;;;;145.97;48.10;;;4.60;99.90;;;;;;10393165;28;20041;-89
2021/12/01 15:34:03;;;;;;;110.97;43.17;;;4.60;99.90;;;;;;10392810;28;20739;-89
2021/12/01 15:39:05;;;;;;;102.83;44.80;;;4.60;99.90;;;;;;10392520;28;20021;-89
2021/12/01 15:44:06;;;;;;;130.33;64.63;;;4.60;99.90;;;;;;10411205;28;20045;-88
2021/12/01 15:49:07;;;;;;;119.17;50.23;;;4.70;99.90;;;;;;10407918;28;20018;-87
2021/12/01 15:54:08;;;;;;;124.00;60.40;;;4.70;99.90;;;;;;10388891;28;20120;-88
2021/12/01 15:59:09;;;;;;;90.40;43.70;;;4.70;99.90;;;;;;10389226;28;20025;-87
2021/12/01 16:04:10;;;;;;;66.57;33.73;;;4.80;99.90;;;;;;10406803;28;20105;-87
2021/12/01 16:09:11;;;;;;;80.80;32.20;;;4.90;99.90;;;;;;10409743;28;20524;-85
2021/12/01 16:14:14;;;;;;;42.67;18.63;;;4.90;99.90;;;;;;10408688;28;20028;-86
2021/12/01 16:19:15;;;;;;;68.70;26.77;;;5.00;99.90;;;;;;10390264;28;20396;-87
2021/12/01 16:24:15;;;;;;;31.90;15.40;;;5.00;99.90;;;;;;10413290;28;20045;-86
2021/12/01 16:29:17;;;;;;;32.77;16.33;;;5.10;99.90;;;;;;10448604;28;20032;-86
2021/12/01 16:34:17;;;;;;;64.87;28.07;;;5.10;99.90;;;;;;10431270;28;20032;-87
2021/12/01 16:39:18;;;;;;;43.13;20.30;;;5.10;99.90;;;;;;10448148;28;20033;-86
2021/12/01 16:44:20;;;;;;;113.07;38.27;;;5.10;99.90;;;;;;10448035;28;20668;-87
2021/12/01 16:49:20;;;;;;;72.83;27.23;;;5.20;99.90;;;;;;10448903;28;20127;-87
2021/12/01 16:54:21;;;;;;;68.97;29.00;;;5.20;99.90;;;;;;10445757;28;20456;-87
2021/12/01 16:59:22;;;;;;;51.63;24.23;;;5.30;99.90;;;;;;10430152;28;20429;-88
2021/12/01 17:04:28;;;;;;;53.37;21.70;;;5.30;99.90;;;;;;10447020;28;20036;-84
2021/12/01 17:09:28;;;;;;;62.42;27.40;;;5.40;99.90;;;;;;10448145;28;20029;-83
2021/12/01 17:14:29;;;;;;;46.27;19.57;;;5.40;99.90;;;;;;10430773;28;20028;-86
2021/12/01 17:19:30;;;;;;;35.50;17.50;;;5.50;99.90;;;;;;10446551;28;20044;-85
2021/12/01 17:24:32;;;;;;;84.17;30.73;;;5.50;99.90;;;;;;10461777;28;20060;-85
2021/12/01 17:29:32;;;;;;;66.83;29.17;;;5.60;99.90;;;;;;10435477;28;20403;-86
2021/12/01 17:34:34;;;;;;;82.07;31.53;;;5.60;99.90;;;;;;10454367;28;20033;-85
2021/12/01 17:39:38;;;;;;;63.63;25.47;;;5.60;99.90;;;;;;10454665;28;20041;-86
2021/12/01 17:44:40;;;;;;;53.53;21.90;;;5.60;99.90;;;;;;10454937;28;20037;-85
2021/12/01 17:49:40;;;;;;;43.13;17.57;;;5.60;99.90;;;;;;10432624;28;20033;-85
2021/12/01 17:54:41;;;;;;;65.80;31.27;;;5.70;99.90;;;;;;10429759;28;20021;-85
2021/12/01 17:59:42;;;;;;;36.00;16.60;;;5.80;99.90;;;;;;10422810;28;20029;-87
2021/12/01 18:04:44;;;;;;;26.33;13.43;;;5.80;99.90;;;;;;10451247;28;20404;-87
2021/12/01 18:09:45;;;;;;;37.77;17.17;;;5.90;99.90;;;;;;10446436;28;20068;-84
2021/12/01 18:14:45;;;;;;;40.07;21.23;;;5.90;99.90;;;;;;10441444;28;20548;-86
2021/12/01 18:19:46;;;;;;;33.03;16.93;;;5.90;99.90;;;;;;10422727;28;20033;-88
2021/12/01 18:24:47;;;;;;;34.33;16.40;;;5.90;99.90;;;;;;10467943;28;20115;-85
2021/12/01 18:29:47;;;;;;;30.67;15.93;;;5.90;99.90;;;;;;10453538;28;20391;-87
2021/12/01 18:34:49;;;;;;;31.90;15.67;;;5.90;99.90;;;;;;10453764;28;20029;-86
2021/12/01 18:39:49;;;;;;;46.07;21.77;;;5.90;99.90;;;;;;10453158;28;20032;-86
2021/12/01 18:44:51;;;;;;;68.27;29.17;;;6.00;99.90;;;;;;10453801;28;20476;-88
2021/12/01 18:49:52;;;;;;;33.90;14.70;;;6.00;99.90;;;;;;10454248;28;20040;-85
2021/12/01 18:54:55;;;;;;;32.23;15.47;;;6.10;99.90;;;;;;10454338;28;20029;-89
2021/12/01 18:59:58;;;;;;;31.83;14.17;;;6.30;99.90;;;;;;10450692;28;20112;-85
2021/12/01 19:04:59;;;;;;;28.90;12.80;;;6.30;99.90;;;;;;10449973;28;20033;-90
2021/12/01 19:09:59;;;;;;;33.20;16.87;;;6.40;99.90;;;;;;10446707;28;20020;-88
2021/12/01 19:15:00;;;;;;;29.40;15.13;;;6.50;99.90;;;;;;10453318;28;20468;-87
2021/12/01 19:20:01;;;;;;;34.33;14.60;;;6.50;99.90;;;;;;10451679;28;20041;-91
2021/12/01 19:25:09;;;;;;;26.17;10.33;;;6.60;99.90;;;;;;10434656;28;20074;-86
2021/12/01 19:30:13;;;;;;;25.33;9.30;;;6.60;99.90;;;;;;10449599;28;20469;-86
2021/12/01 19:35:15;;;;;;;24.87;9.93;;;6.70;99.90;;;;;;10449229;28;20163;-86
2021/12/01 19:40:17;;;;;;;20.00;9.03;;;6.70;99.90;;;;;;10426569;28;20041;-86
2021/12/01 19:45:19;;;;;;;19.87;8.20;;;6.70;99.90;;;;;;10450210;28;20032;-87
2021/12/01 19:50:21;;;;;;;24.13;9.07;;;6.70;99.90;;;;;;10450308;28;20029;-87
2021/12/01 19:55:22;;;;;;;23.87;11.37;;;6.70;99.90;;;;;;10431123;28;20116;-85
2021/12/01 20:00:29;;;;;;;19.27;8.80;;;6.70;99.90;;;;;;10441238;28;20523;-85
2021/12/01 20:05:31;;;;;;;21.90;9.65;;;6.70;99.90;;;;;;10450436;28;20392;-86
2021/12/01 20:10:32;;;;;;;24.40;9.00;;;6.70;99.90;;;;;;10448879;28;20137;-86
2021/12/01 20:15:33;;;;;;;44.13;23.00;;;6.70;99.90;;;;;;10449229;28;20035;-86
2021/12/01 20:20:35;;;;;;;33.43;16.97;;;6.70;99.90;;;;;;10449187;28;20472;-86
2021/12/01 20:25:38;;;;;;;38.40;17.73;;;6.70;99.90;;;;;;10424902;28;20044;-86
2021/12/01 20:30:39;;;;;;;24.47;11.87;;;6.70;99.90;;;;;;10449048;28;20100;-87
2021/12/01 20:35:40;;;;;;;33.53;16.17;;;6.70;99.90;;;;;;10438806;28;20029;-86
2021/12/01 20:40:43;;;;;;;30.07;14.40;;;6.60;99.90;;;;;;10431273;28;20041;-87
2021/12/01 20:45:58;;;;;;;31.13;14.63;;;6.50;99.90;;;;;;10435709;28;20029;-88
2021/12/01 21:06:29;;;;;;;21.77;12.03;;;6.20;99.90;;;;;;10454564;28;20025;-86
2021/12/01 21:11:35;;;;;;;20.67;11.07;;;6.20;99.90;;;;;;10453489;28;20083;-87
2021/12/01 21:16:39;;;;;;;22.17;12.32;;;6.20;99.90;;;;;;10437695;28;20065;-87
2021/12/01 21:21:43;;;;;;;22.80;12.60;;;6.20;99.90;;;;;;10437222;28;20144;-86
2021/12/01 21:26:44;;;;;;;26.63;12.47;;;6.10;99.90;;;;;;10454894;28;20052;-87
2021/12/01 21:31:48;;;;;;;23.07;12.77;;;6.10;99.90;;;;;;10449351;28;20029;-85
2021/12/01 21:36:49;;;;;;;28.07;14.13;;;6.10;99.90;;;;;;10416451;28;20036;-86
2021/12/01 21:41:50;;;;;;;26.80;12.27;;;6.10;99.90;;;;;;10455476;28;20041;-86
2021/12/01 21:46:51;;;;;;;36.87;15.13;;;6.10;99.90;;;;;;10455375;28;20033;-87
2021/12/01 21:51:52;;;;;;;27.80;13.07;;;6.10;99.90;;;;;;10435350;28;20718;-86
2021/12/01 21:56:53;;;;;;;28.87;15.00;;;6.10;99.90;;;;;;10437006;28;20029;-86
2021/12/01 22:01:54;;;;;;;28.50;15.13;;;6.10;99.90;;;;;;10454914;28;20036;-87
2021/12/01 22:06:54;;;;;;;58.00;28.40;;;6.20;99.90;;;;;;10454670;28;20032;-86
2021/12/01 22:11:55;;;;;;;31.63;14.53;;;6.20;99.90;;;;;;10454360;28;20464;-85
2021/12/01 22:16:56;;;;;;;32.93;16.27;;;6.20;99.90;;;;;;10455413;28;20123;-86
2021/12/01 22:22:02;;;;;;;26.63;12.83;;;6.20;99.90;;;;;;10454539;28;20037;-85
2021/12/01 22:27:04;;;;;;;31.73;13.55;;;6.30;99.90;;;;;;10454555;28;20081;-86
2021/12/01 22:32:06;;;;;;;31.60;14.03;;;6.30;99.90;;;;;;10453764;28;20020;-86
2021/12/01 22:37:10;;;;;;;29.30;13.13;;;6.40;99.90;;;;;;10453564;28;20062;-86
2021/12/01 22:42:12;;;;;;;35.97;12.87;;;6.50;99.90;;;;;;10453865;28;20098;-85
2021/12/01 22:47:13;;;;;;;30.03;13.03;;;6.50;99.90;;;;;;10436001;28;20179;-87
2021/12/01 22:52:14;;;;;;;40.33;16.23;;;6.50;99.90;;;;;;10453018;28;20016;-86
2021/12/01 22:57:18;;;;;;;31.10;12.50;;;6.60;99.90;;;;;;10452337;28;20033;-87
2021/12/01 23:02:20;;;;;;;34.77;13.47;;;6.70;99.90;;;;;;10452451;28;20041;-84
2021/12/01 23:07:25;;;;;;;28.83;11.87;;;6.80;99.90;;;;;;10433855;28;20036;-85
2021/12/01 23:12:26;;;;;;;23.70;9.18;;;6.90;99.90;;;;;;10452740;28;20116;-84
2021/12/01 23:17:27;;;;;;;23.50;8.30;;;7.00;99.90;;;;;;10451713;28;20550;-85
2021/12/01 23:22:27;;;;;;;13.47;5.87;;;7.10;99.90;;;;;;10452332;28;20036;-86
2021/12/01 23:27:32;;;;;;;11.37;4.83;;;7.20;99.90;;;;;;10432470;28;20049;-85
2021/12/01 23:32:51;;;;;;;17.47;6.60;;;7.30;99.90;;;;;;10451445;28;20029;-87
2021/12/01 23:37:52;;;;;;;12.97;6.50;;;7.30;99.90;;;;;;10451444;28;20061;-85
2021/12/01 23:42:53;;;;;;;11.40;5.70;;;7.40;99.90;;;;;;10451315;28;20040;-85
2021/12/01 23:52:54;;;;;;;12.67;5.70;;;7.30;99.90;;;;;;10450299;28;20080;-85
2021/12/01 23:57:55;;;;;;;12.93;5.87;;;7.30;99.90;;;;;;10450784;28;20032;-86
